»·PEaware :: ASA1589 KSFO-KPSP

ASA1589 :: KSFO-KPSP

FLIGHT INFORMATION

Flight Status: Arrived
Operator:
Alaska Airlines
More flights by this operator :: More flights under this callsign
Pilot: Ryan W. (19155)
Aircraft: AIRBUS A320
(A320)
More flights by this aircraft type
Origin: KSFO San Francisco Intl
United States
Destination: KPSP Palm Springs Intl
United States
More flights between these airports :: More routes between these airports
Route: SSTIK3 LOSHN CLASN SIZLR3
File this flight plan on PilotEdge
Remarks: First PilotEdge flight.
Altitude:
(Current/Filed)
37,000ft
Speed:
(Current/Filed)
447kts
Departed: 10-May-18 12:23 PM
Arrived: 10-May-18 01:24 PM
Distance/Time
Traveled:
365nm/1:00
Distance/Time
To Go:
Arrived

Flight Plot

Page will automatically refresh every two minutes.

Flight plan parsing failed; only flown route is shown


Map Options




Map Legend


Flown Route
Filed Route
Departure Airport
Arrival Airport
Navaid (VOR, NDB)
Fix

Horizontal Profiles

Position Reports

Time Latitude Longitude Heading Altitude Ground
Speed
10-May-18 12:03 37.616759 -122.381705 22 32ft 0kts
10-May-18 12:04 37.616759 -122.381705 22 32ft 0kts
10-May-18 12:05 37.616759 -122.381705 22 32ft 0kts
10-May-18 12:06 37.616759 -122.381705 22 32ft 0kts
10-May-18 12:07 37.616759 -122.381705 22 32ft 0kts
10-May-18 12:08 37.616759 -122.381705 22 32ft 0kts
10-May-18 12:09 37.616759 -122.381705 22 32ft 0kts
10-May-18 12:10 37.616759 -122.381705 22 32ft 0kts
10-May-18 12:11 37.616759 -122.381705 22 32ft 0kts
10-May-18 12:12 37.616759 -122.381705 22 32ft 0kts
10-May-18 12:13 37.616759 -122.381705 22 32ft 0kts
10-May-18 12:14 37.616475 -122.381844 20 32ft 2kts
10-May-18 12:15 37.616218 -122.382374 109 32ft 2kts
10-May-18 12:16 37.616318 -122.382615 119 32ft 0kts
10-May-18 12:17 37.616317 -122.382614 119 32ft 0kts
10-May-18 12:18 37.615945 -122.381727 118 32ft 6kts
10-May-18 12:19 37.614191 -122.381254 208 32ft 13kts
10-May-18 12:20 37.610160 -122.383991 217 32ft 17kts
10-May-18 12:21 37.608519 -122.383982 118 32ft 0kts
10-May-18 12:22 37.608161 -122.382800 57 31ft 8kts
10-May-18 12:23 37.632452 -122.366922 18 883ft 188kts
10-May-18 12:24 37.691669 -122.362474 334 4011ft 252kts
10-May-18 12:25 37.701146 -122.437955 225 7825ft 278kts
10-May-18 12:26 37.622642 -122.459097 187 11123ft 321kts
10-May-18 12:27 37.527085 -122.470240 186 13655ft 363kts
10-May-18 12:28 37.443564 -122.404079 128 16339ft 390kts
10-May-18 12:29 37.375183 -122.296631 128 18747ft 408kts
10-May-18 12:30 37.302710 -122.184305 128 20898ft 426kts
10-May-18 12:31 37.226896 -122.067349 128 22860ft 442kts
10-May-18 12:32 37.148489 -121.946833 128 24663ft 457kts
10-May-18 12:33 37.067260 -121.822438 127 26430ft 467kts
10-May-18 12:34 36.984775 -121.696581 127 28155ft 474kts
10-May-18 12:35 36.900160 -121.568945 126 29590ft 482kts
10-May-18 12:36 36.815069 -121.439388 126 30763ft 492kts
10-May-18 12:37 36.728313 -121.308439 127 32104ft 494kts
10-May-18 12:38 36.640997 -121.177221 127 33469ft 492kts
10-May-18 12:39 36.553761 -121.046698 130 34600ft 494kts
10-May-18 12:40 36.467102 -120.917317 131 36202ft 481kts
10-May-18 12:41 36.382119 -120.790017 131 37076ft 483kts
10-May-18 12:42 36.298224 -120.664865 131 37085ft 482kts
10-May-18 12:43 36.212819 -120.537941 131 37087ft 482kts
10-May-18 12:44 36.126993 -120.410866 131 37095ft 483kts
10-May-18 12:45 36.041796 -120.285188 132 37093ft 483kts
10-May-18 12:46 35.955800 -120.158802 132 37080ft 482kts
10-May-18 12:47 35.870141 -120.033381 132 37078ft 482kts
10-May-18 12:48 35.805839 -119.889219 115 37084ft 487kts
10-May-18 12:49 35.749308 -119.738747 115 37061ft 486kts
10-May-18 12:50 35.692376 -119.588156 115 37047ft 486kts
10-May-18 12:51 35.624019 -119.453717 134 37052ft 483kts
10-May-18 12:52 35.533943 -119.332314 135 37056ft 482kts
10-May-18 12:53 35.444816 -119.212369 135 37049ft 481kts
10-May-18 12:54 35.354882 -119.091787 135 37046ft 481kts
10-May-18 12:55 35.264873 -118.971923 136 37058ft 481kts
10-May-18 12:56 35.174884 -118.852866 137 36197ft 474kts
10-May-18 12:57 35.086063 -118.735771 137 35291ft 471kts
10-May-18 12:58 34.996758 -118.618461 137 34358ft 473kts
10-May-18 12:59 34.908231 -118.502526 137 33410ft 472kts
10-May-18 13:00 34.820274 -118.387726 137 31198ft 473kts
10-May-18 13:01 34.738128 -118.270163 132 28047ft 484kts
10-May-18 13:02 34.656316 -118.143512 132 25439ft 472kts
10-May-18 13:03 34.578273 -118.019870 123 23004ft 458kts
10-May-18 13:04 34.521379 -117.883079 118 21732ft 453kts
10-May-18 13:05 34.465884 -117.747902 118 20559ft 445kts
10-May-18 13:06 34.411512 -117.615172 118 19400ft 438kts
10-May-18 13:07 34.357987 -117.484413 118 18262ft 430kts
10-May-18 13:08 34.305274 -117.356178 118 17133ft 422kts
10-May-18 13:09 34.249405 -117.234468 121 16171ft 413kts
10-May-18 13:10 34.192840 -117.113862 121 16155ft 414kts
10-May-18 13:11 34.138675 -116.998496 122 16165ft 361kts
10-May-18 13:12 34.091400 -116.897845 122 16147ft 340kts
10-May-18 13:13 34.046065 -116.800941 122 14326ft 327kts
10-May-18 13:14 34.013043 -116.697364 110 13688ft 334kts
10-May-18 13:15 33.984944 -116.592211 110 12089ft 323kts
10-May-18 13:16 33.937986 -116.506932 138 9343ft 308kts
10-May-18 13:17 33.876158 -116.440215 138 6804ft 294kts
10-May-18 13:18 33.819653 -116.376531 134 4526ft 257kts
10-May-18 13:19 33.765746 -116.345427 210 3530ft 214kts
10-May-18 13:20 33.750545 -116.403640 280 2573ft 171kts
10-May-18 13:21 33.770958 -116.446375 305 1661ft 138kts
10-May-18 13:22 33.797527 -116.479498 324 1060ft 139kts
10-May-18 13:23 33.827796 -116.505989 323 425ft 110kts
10-May-18 13:24 33.832434 -116.511956 184 443ft 12kts
10-May-18 13:25 33.828601 -116.508753 142 431ft 17kts
10-May-18 13:26 33.824921 -116.506318 161 419ft 11kts
10-May-18 13:27 33.823470 -116.505825 252 416ft 2kts
10-May-18 13:28 33.823464 -116.505848 252 416ft 0kts
10-May-18 13:29 33.823464 -116.505848 252 416ft 0kts
10-May-18 13:30 33.823464 -116.505848 252 416ft 0kts
10-May-18 13:31 33.823464 -116.505848 252 416ft 0kts
10-May-18 13:32 33.823464 -116.505848 252 416ft 0kts
10-May-18 13:33 33.823464 -116.505848 252 416ft 0kts

Navigation Log

Ident Type
Flight plan parsing failed, navigation log unavailable